Philip Billard Municipal Airport Topeka US
ICAO: KTOP
IATA: TOP
Category: Medium
Scheduled Services: No

Elevation: 881 ft
TransAlt. 18000 ft.

Airport Communications:
ASOS:121.275
CLNC DEL:121.9
KANSAS CITY CNTR:123.8
CTAF:118.7
GND:121.9
WICHITA RDO:122.45
TOPEKA TWR:118.7
UNICOM:122.95

KTOP Zoom In..

If you have problems with the map follow the link
https://www.worldairports.se/pages/airport.php?
ICAO=KTOP

Runways:

(A) RW 04 length 3001 ft width 100 ft
---- / hdg 44

(B) RW 13 length 5099 ft width 100 ft
ILS 110.70 / hdg 129

(C) RW 18 length 4331 ft width 75 ft
---- / hdg 177

(D) RW 22 length 3001 ft width 100 ft
---- / hdg 224

(E) RW 31 length 5099 ft width 100 ft
---- / hdg 309

(F) RW 36 length 4331 ft width 75 ft
---- / hdg 357

Location; KTOP
Day. 05 / Time. 20.53 Zulu
* Altimeter: 29.82
* Temperature: 17° c. 62.6°f.
* Wind from: KTO° Speed P kn.
Dewpoint: 03° c.
Visibility: 10 Statute Miles.
Clouds: Clear (automated report).

KTOP 052053Z 15007KT 10SM CLR 17/03 A2982 RMK AO2 SLP099 T01720028 56021


Wind From KTO°
Speed P kn.

 
 
jpsmedia worldairports.se 2019   terms of use